Aviation Digital Data Service (ADDS)

Output produced by METARs form (0117 UTC 16 January 2019)
found at http://www.aviationweather.gov/metar/data/
 
ESTA 160050Z AUTO 26013KT 9999 FEW084/// OVC110/// 05/03 Q0999
TAF ESTA 152009Z 1521/1523 28017KT 9999 BKN015 
     TEMPO 1521/1523 BKN012